createdAt,value
2019-05-11T00:02:01.192Z,39.63
2019-05-11T00:04:29.573Z,39.93
2019-05-11T00:06:57.944Z,39.60
2019-05-11T00:09:26.316Z,38.30
2019-05-11T00:11:54.707Z,39.03
2019-05-11T00:14:23.123Z,37.00
2019-05-11T00:16:51.827Z,39.70
2019-05-11T00:19:20.209Z,39.40
2019-05-11T00:21:48.590Z,40.70
2019-05-11T00:24:16.972Z,39.00
2019-05-11T00:26:45.352Z,39.47
2019-05-11T00:29:13.740Z,39.27
2019-05-11T00:31:42.100Z,40.83
2019-05-11T00:34:10.500Z,41.97
2019-05-11T00:36:38.865Z,40.83
2019-05-11T00:39:07.973Z,39.77
2019-05-11T00:41:36.360Z,40.67
2019-05-11T00:44:04.799Z,38.90
2019-05-11T00:46:33.183Z,38.43
2019-05-11T00:49:01.575Z,36.67
2019-05-11T00:51:29.960Z,38.67
2019-05-11T00:53:58.343Z,38.37
2019-05-11T00:56:26.728Z,38.27
2019-05-11T00:58:55.095Z,40.23
2019-05-11T01:01:23.944Z,38.60
2019-05-11T01:03:52.677Z,39.37
2019-05-11T01:06:21.133Z,38.90
2019-05-11T01:08:49.511Z,37.07
2019-05-11T01:11:17.887Z,40.30
2019-05-11T01:13:46.264Z,39.80
2019-05-11T01:16:14.641Z,40.83
2019-05-11T01:18:43.028Z,41.90
2019-05-11T01:21:11.414Z,42.10
2019-05-11T01:23:39.789Z,41.13
2019-05-11T01:26:08.419Z,39.87
2019-05-11T01:28:36.807Z,41.90
2019-05-11T01:31:05.183Z,39.27
2019-05-11T01:33:33.563Z,38.20
2019-05-11T01:36:01.951Z,38.97
2019-05-11T01:38:30.330Z,40.27
2019-05-11T01:40:59.314Z,38.77
2019-05-11T01:43:27.763Z,41.67
2019-05-11T01:45:56.135Z,41.50
2019-05-11T01:48:24.528Z,40.07
2019-05-11T01:50:52.907Z,40.57
2019-05-11T01:53:21.287Z,41.43
2019-05-11T01:55:49.671Z,37.17
2019-05-11T01:58:18.051Z,39.63
2019-05-11T02:00:46.435Z,40.97
2019-05-11T02:03:14.808Z,42.50
2019-05-11T02:05:43.188Z,41.53
2019-05-11T02:08:11.560Z,41.07
2019-05-11T02:10:39.948Z,42.23
2019-05-11T02:13:08.324Z,41.97
2019-05-11T02:15:36.713Z,43.17
2019-05-11T02:18:05.323Z,44.37
2019-05-11T02:20:33.695Z,42.83
2019-05-11T02:23:02.081Z,44.43
2019-05-11T02:25:30.455Z,46.03
2019-05-11T02:27:58.828Z,46.93
2019-05-11T02:30:27.220Z,46.57
2019-05-11T02:32:55.595Z,47.70
2019-05-11T02:35:23.980Z,47.57
2019-05-11T02:37:52.358Z,46.43
2019-05-11T02:40:23.783Z,48.97
2019-05-11T02:42:52.172Z,48.23
2019-05-11T02:45:41.143Z,49.67
2019-05-11T02:48:09.665Z,50.03
2019-05-11T02:50:39.152Z,49.97
2019-05-11T02:53:08.684Z,51.37
2019-05-11T02:55:37.197Z,52.00
2019-05-11T02:58:07.749Z,54.10
2019-05-11T03:00:41.240Z,52.17
2019-05-11T03:03:09.748Z,52.23
2019-05-11T03:05:38.189Z,54.23
2019-05-11T03:08:06.645Z,56.10
2019-05-11T03:10:35.023Z,57.63
2019-05-11T03:13:03.467Z,57.77
2019-05-11T03:15:31.986Z,56.73
2019-05-11T03:18:00.379Z,59.00
2019-05-11T03:20:28.751Z,57.10
2019-05-11T03:22:57.142Z,58.67
2019-05-11T03:25:25.566Z,58.90
2019-05-11T03:27:53.992Z,59.17
2019-05-11T03:30:22.809Z,58.83
2019-05-11T03:32:51.268Z,57.90
2019-05-11T03:35:19.652Z,57.33
2019-05-11T03:37:48.019Z,57.60
2019-05-11T03:40:16.649Z,57.60
2019-05-11T03:42:45.004Z,56.47
2019-05-11T03:45:14.121Z,57.03
2019-05-11T03:47:42.514Z,59.40
2019-05-11T03:50:11.033Z,60.17
2019-05-11T03:52:39.414Z,61.37
2019-05-11T03:55:07.940Z,59.73
2019-05-11T03:57:36.311Z,64.73
2019-05-11T04:00:06.541Z,59.77
2019-05-11T04:02:34.936Z,61.63
2019-05-11T04:05:04.446Z,62.80
2019-05-11T04:07:32.828Z,60.47
2019-05-11T04:10:01.220Z,61.70
2019-05-11T04:12:34.965Z,60.70
2019-05-11T04:14:59.709Z,62.30
2019-05-11T04:17:28.093Z,62.53
2019-05-11T04:19:56.463Z,61.93
2019-05-11T04:22:24.840Z,63.33
2019-05-11T04:24:53.234Z,61.00
2019-05-11T04:27:21.608Z,63.27
2019-05-11T04:29:49.985Z,62.23
2019-05-11T04:32:18.371Z,62.77
2019-05-11T04:34:46.747Z,62.90
2019-05-11T04:37:15.127Z,62.57
2019-05-11T04:39:43.516Z,66.17
2019-05-11T04:42:11.891Z,62.70
2019-05-11T04:44:40.269Z,62.40
2019-05-11T04:47:08.664Z,63.80
2019-05-11T04:49:37.032Z,64.13
2019-05-11T04:52:05.415Z,63.23
2019-05-11T04:54:33.804Z,61.77
2019-05-11T04:57:02.180Z,61.63
2019-05-11T04:59:30.568Z,58.07
2019-05-11T05:01:58.945Z,59.07
2019-05-11T05:04:27.319Z,59.87
2019-05-11T05:06:59.770Z,60.37
2019-05-11T05:09:25.837Z,57.23
2019-05-11T05:11:54.364Z,58.13
2019-05-11T05:14:22.747Z,49.97
2019-05-11T05:16:51.119Z,49.47
2019-05-11T05:19:19.520Z,46.30
2019-05-11T05:21:47.888Z,47.90
2019-05-11T05:24:16.264Z,47.53
2019-05-11T05:26:44.649Z,51.00
2019-05-11T05:29:13.023Z,45.00
2019-05-11T05:31:41.413Z,47.90
2019-05-11T05:34:09.792Z,44.97
2019-05-11T05:36:38.176Z,43.23
2019-05-11T05:39:09.260Z,45.17
2019-05-11T05:41:37.399Z,46.20
2019-05-11T05:44:05.771Z,40.70
2019-05-11T05:46:34.151Z,43.77
2019-05-11T05:49:02.539Z,41.93
2019-05-11T05:51:30.918Z,42.07
2019-05-11T05:53:59.300Z,44.23
2019-05-11T05:56:27.679Z,44.47
2019-05-11T05:58:56.057Z,45.63
2019-05-11T06:01:24.432Z,46.87
2019-05-11T06:03:52.817Z,48.93
2019-05-11T06:06:21.187Z,48.63
2019-05-11T06:08:49.576Z,47.67
2019-05-11T06:11:17.952Z,48.77
2019-05-11T06:13:46.327Z,48.33
2019-05-11T06:16:14.711Z,46.43
2019-05-11T06:18:43.084Z,47.37
2019-05-11T06:21:11.471Z,46.03
2019-05-11T06:23:39.851Z,45.73
2019-05-11T06:26:08.239Z,45.13
2019-05-11T06:28:36.611Z,43.00
2019-05-11T06:31:04.988Z,44.00
2019-05-11T06:33:33.384Z,43.37
2019-05-11T06:36:01.763Z,44.00
2019-05-11T06:38:30.139Z,45.10
2019-05-11T06:40:58.527Z,39.97
2019-05-11T06:43:26.906Z,41.23
2019-05-11T06:45:55.295Z,40.57
2019-05-11T06:48:23.677Z,40.17
2019-05-11T06:50:52.077Z,40.93
2019-05-11T06:53:20.464Z,40.30
2019-05-11T06:55:48.863Z,39.70
2019-05-11T06:58:17.241Z,41.97
2019-05-11T07:00:45.657Z,40.00
2019-05-11T07:03:14.039Z,40.77
2019-05-11T07:05:42.417Z,41.70
2019-05-11T07:08:10.808Z,41.23
2019-05-11T07:10:39.472Z,41.73
2019-05-11T07:13:07.852Z,42.10
2019-05-11T07:15:36.315Z,41.03
2019-05-11T07:18:05.160Z,39.37
2019-05-11T07:20:48.269Z,36.47
2019-05-11T07:23:03.657Z,41.90
2019-05-11T07:25:32.043Z,43.40
2019-05-11T07:28:00.428Z,42.17
2019-05-11T07:30:28.800Z,43.03
2019-05-11T07:32:58.096Z,42.60
2019-05-11T07:35:27.979Z,44.00
2019-05-11T07:37:58.177Z,43.17
2019-05-11T07:40:27.938Z,40.50
2019-05-11T07:42:58.762Z,43.53
2019-05-11T07:45:28.314Z,41.30
2019-05-11T07:47:58.793Z,43.87
2019-05-11T07:50:28.337Z,46.97
2019-05-11T07:52:58.891Z,45.93
2019-05-11T07:55:28.214Z,44.33
2019-05-11T07:57:58.594Z,45.93
2019-05-11T08:00:28.070Z,46.70
2019-05-11T08:02:58.474Z,47.30
2019-05-11T08:05:28.398Z,44.40
2019-05-11T08:07:59.310Z,43.10
2019-05-11T08:10:28.111Z,42.80
2019-05-11T08:12:58.758Z,40.20
2019-05-11T08:15:28.387Z,37.83
2019-05-11T08:17:57.886Z,37.60
2019-05-11T08:20:28.046Z,37.47
2019-05-11T08:22:58.706Z,33.53
2019-05-11T08:25:28.654Z,32.83
2019-05-11T08:27:58.805Z,31.10
2019-05-11T08:30:27.901Z,32.53
2019-05-11T08:32:58.245Z,31.40
2019-05-11T08:35:30.931Z,29.97
2019-05-11T08:37:58.204Z,29.33
2019-05-11T08:40:28.847Z,29.23
2019-05-11T08:42:58.252Z,29.23
2019-05-11T08:45:27.980Z,30.40
2019-05-11T08:47:58.006Z,31.03
2019-05-11T08:50:27.908Z,34.73
2019-05-11T08:52:58.067Z,35.10
2019-05-11T08:55:28.779Z,37.13
2019-05-11T08:57:58.514Z,36.73
2019-05-11T09:00:28.400Z,37.37
2019-05-11T09:02:58.253Z,37.00
2019-05-11T09:05:28.007Z,35.00
2019-05-11T09:07:57.765Z,35.87
2019-05-11T09:10:28.058Z,36.73
2019-05-11T09:12:58.855Z,35.20
2019-05-11T09:15:36.627Z,32.57
2019-05-11T09:17:57.739Z,28.87
2019-05-11T09:20:28.511Z,27.40
2019-05-11T09:22:58.718Z,26.33
2019-05-11T09:25:27.793Z,22.50
2019-05-11T09:27:58.526Z,21.53
2019-05-11T09:30:28.622Z,21.53
2019-05-11T09:32:58.112Z,20.60
2019-05-11T09:35:29.020Z,19.77
2019-05-11T09:37:58.766Z,19.23
2019-05-11T09:40:28.373Z,18.93
2019-05-11T09:42:58.545Z,19.83
2019-05-11T09:45:27.785Z,19.97
2019-05-11T09:47:58.291Z,18.83
2019-05-11T09:50:28.344Z,18.80
2019-05-11T09:52:58.114Z,18.53
2019-05-11T09:55:28.292Z,18.43
2019-05-11T09:57:58.016Z,18.77
2019-05-11T10:00:28.304Z,17.63
2019-05-11T10:02:57.677Z,16.60
2019-05-11T10:05:28.444Z,17.37
2019-05-11T10:07:58.710Z,17.67
2019-05-11T10:10:28.775Z,16.40
2019-05-11T10:12:58.758Z,15.80
2019-05-11T10:15:27.976Z,15.83
2019-05-11T10:17:58.206Z,15.50
2019-05-11T10:20:28.640Z,16.40
2019-05-11T10:22:57.932Z,15.80
2019-05-11T10:25:28.507Z,14.70
2019-05-11T10:27:58.033Z,14.80
2019-05-11T10:30:28.084Z,15.47
2019-05-11T10:32:57.784Z,15.07
2019-05-11T10:35:28.184Z,15.40
2019-05-11T10:37:58.298Z,15.10
2019-05-11T10:40:28.170Z,15.70
2019-05-11T10:42:59.001Z,15.77
2019-05-11T10:45:28.499Z,16.77
2019-05-11T10:48:00.349Z,17.20
2019-05-11T10:50:28.810Z,16.70
2019-05-11T10:52:59.010Z,15.93
2019-05-11T10:55:28.021Z,16.80
2019-05-11T10:57:58.066Z,17.23
2019-05-11T11:00:28.317Z,17.17
2019-05-11T11:02:58.079Z,16.37
2019-05-11T11:05:27.953Z,15.50
2019-05-11T11:07:58.666Z,16.57
2019-05-11T11:10:28.637Z,15.63
2019-05-11T11:12:57.807Z,15.57
2019-05-11T11:15:28.646Z,13.93
2019-05-11T11:17:57.908Z,13.87
2019-05-11T11:20:28.039Z,14.07
2019-05-11T11:22:58.337Z,14.60
2019-05-11T11:25:28.446Z,14.57
2019-05-11T11:27:57.815Z,13.07
2019-05-11T11:30:28.409Z,13.57
2019-05-11T11:32:58.565Z,13.97
2019-05-11T11:35:27.880Z,13.87
2019-05-11T11:37:58.499Z,12.13
2019-05-11T11:40:28.157Z,12.60
2019-05-11T11:42:58.118Z,12.27
2019-05-11T11:45:28.777Z,11.00
2019-05-11T11:47:58.039Z,10.77
2019-05-11T11:50:28.335Z,10.30
2019-05-11T11:52:57.825Z,10.40
2019-05-11T11:55:28.797Z,9.60
2019-05-11T11:57:58.665Z,10.00
2019-05-11T12:00:28.772Z,8.40
2019-05-11T12:02:58.010Z,8.77
2019-05-11T12:05:28.256Z,8.03
2019-05-11T12:07:58.030Z,8.37
2019-05-11T12:10:28.486Z,7.73
2019-05-11T12:12:58.167Z,7.77
2019-05-11T12:15:28.287Z,6.93
2019-05-11T12:17:58.718Z,6.60
2019-05-11T12:20:28.666Z,7.30
2019-05-11T12:23:18.029Z,7.57
2019-05-11T12:25:48.673Z,8.53
2019-05-11T12:28:18.381Z,8.17
2019-05-11T12:30:48.160Z,8.20
2019-05-11T12:33:18.707Z,8.30
2019-05-11T12:35:48.189Z,7.80
2019-05-11T12:38:18.369Z,8.63
2019-05-11T12:40:47.724Z,8.87
2019-05-11T12:43:18.398Z,7.80
2019-05-11T12:45:48.132Z,7.03
2019-05-11T12:48:18.111Z,6.53
2019-05-11T12:50:48.432Z,7.53
2019-05-11T12:53:18.562Z,6.30
2019-05-11T12:55:48.318Z,7.00
2019-05-11T12:58:18.212Z,6.60
2019-05-11T13:00:47.939Z,6.07
2019-05-11T13:03:18.670Z,6.00
2019-05-11T13:05:48.449Z,5.23
2019-05-11T13:08:18.418Z,4.60
2019-05-11T13:10:47.894Z,4.53
2019-05-11T13:13:18.183Z,4.13
2019-05-11T13:15:47.978Z,4.50
2019-05-11T13:18:18.634Z,4.53
2019-05-11T13:20:48.241Z,4.90
2019-05-11T13:23:18.498Z,4.10
2019-05-11T13:25:48.047Z,4.10
2019-05-11T13:28:17.968Z,4.87
2019-05-11T13:30:48.575Z,4.90
2019-05-11T13:33:18.778Z,4.33
2019-05-11T13:35:48.258Z,3.77
2019-05-11T13:38:17.894Z,4.03
2019-05-11T13:40:48.549Z,3.67
2019-05-11T13:43:18.620Z,3.80
2019-05-11T13:45:47.954Z,3.80
2019-05-11T13:48:17.679Z,4.13
2019-05-11T13:50:47.999Z,3.17
2019-05-11T13:53:18.289Z,3.77
2019-05-11T13:55:48.111Z,3.93
2019-05-11T13:58:19.477Z,4.00
2019-05-11T14:00:48.108Z,4.20
2019-05-11T14:03:18.463Z,3.87
2019-05-11T14:05:48.271Z,4.07
2019-05-11T14:08:18.598Z,3.73
2019-05-11T14:10:48.848Z,3.40
2019-05-11T14:13:18.152Z,3.20
2019-05-11T14:15:48.143Z,2.87
2019-05-11T14:18:35.064Z,3.20
2019-05-11T14:21:03.451Z,2.97
2019-05-11T14:23:31.837Z,2.80
2019-05-11T14:26:00.211Z,3.10
2019-05-11T14:28:28.638Z,3.40
2019-05-11T14:30:57.842Z,3.27
2019-05-11T14:33:44.825Z,3.20
2019-05-11T14:36:13.215Z,3.37
2019-05-11T14:38:41.584Z,2.45
2019-05-11T14:41:09.970Z,2.40
2019-05-11T14:43:38.528Z,2.15
2019-05-11T14:46:08.581Z,2.45
2019-05-11T14:48:39.117Z,2.40
2019-05-11T14:51:08.557Z,2.80
2019-05-11T14:53:37.861Z,2.87
2019-05-11T14:56:08.338Z,3.30
2019-05-11T14:58:38.651Z,2.20
2019-05-11T15:01:18.816Z,2.45
2019-05-11T15:06:33.258Z,1.95
2019-05-11T17:53:40.843Z,2.27
2019-05-11T17:56:09.467Z,2.17
2019-05-11T17:58:38.023Z,1.93
2019-05-11T18:01:09.208Z,2.27
2019-05-11T18:03:38.453Z,2.50
2019-05-11T18:06:08.511Z,2.20
2019-05-11T18:08:36.962Z,2.30
2019-05-11T18:11:05.325Z,1.90
2019-05-11T18:13:33.715Z,2.43
2019-05-11T18:16:02.084Z,2.33
2019-05-11T18:18:30.461Z,2.43
2019-05-11T18:20:58.827Z,2.00
2019-05-11T18:23:28.213Z,2.07
2019-05-11T18:25:56.931Z,2.00
2019-05-11T18:28:25.304Z,1.93
2019-05-11T18:30:53.692Z,1.97
2019-05-11T18:33:22.064Z,2.50
2019-05-11T18:35:50.443Z,2.20
2019-05-11T18:38:18.819Z,1.83
2019-05-11T18:40:48.661Z,2.00
2019-05-11T18:43:18.805Z,1.73
2019-05-11T18:45:48.860Z,2.10
2019-05-11T18:48:18.513Z,3.10
2019-05-11T18:50:49.137Z,2.60
2019-05-11T18:53:18.718Z,2.77
2019-05-11T18:55:48.604Z,3.00
2019-05-11T18:58:18.426Z,2.83
2019-05-11T19:00:48.828Z,2.27
2019-05-11T19:03:19.254Z,3.10
2019-05-11T19:05:48.182Z,2.87
2019-05-11T19:08:18.773Z,2.97
2019-05-11T19:10:48.780Z,2.83
2019-05-11T19:13:16.858Z,3.10
2019-05-11T19:15:45.236Z,2.93
2019-05-11T19:18:13.603Z,2.77
2019-05-11T19:20:45.789Z,3.03
2019-05-11T19:23:31.435Z,2.80
2019-05-11T19:25:59.815Z,2.43
2019-05-11T19:28:28.350Z,3.00
2019-05-11T19:30:58.978Z,3.27
2019-05-11T19:33:27.792Z,2.93
2019-05-11T19:35:58.487Z,2.47
2019-05-11T19:38:27.994Z,3.03
2019-05-11T19:40:58.611Z,3.07
2019-05-11T19:43:27.659Z,2.90
2019-05-11T19:45:58.124Z,3.43
2019-05-11T19:48:28.051Z,2.77
2019-05-11T19:51:04.675Z,2.80
2019-05-11T19:53:28.108Z,2.90
2019-05-11T19:55:58.396Z,3.43
2019-05-11T19:58:28.677Z,2.70
2019-05-11T20:00:58.002Z,3.10
2019-05-11T20:03:28.592Z,2.57
2019-05-11T20:05:58.060Z,2.83
2019-05-11T20:08:28.856Z,3.33
2019-05-11T20:11:18.525Z,3.10
2019-05-11T20:13:48.281Z,2.90
2019-05-11T20:16:18.595Z,3.00
2019-05-11T20:18:46.407Z,2.90
2019-05-11T20:21:19.471Z,2.57
2019-05-11T20:23:44.875Z,3.07
2019-05-11T20:26:13.252Z,2.77
2019-05-11T20:28:41.629Z,2.60
2019-05-11T20:31:10.016Z,3.40
2019-05-11T20:33:38.968Z,3.10
2019-05-11T20:36:08.679Z,2.97
2019-05-11T20:38:38.376Z,2.87
2019-05-11T20:41:08.388Z,3.80
2019-05-11T20:43:36.851Z,3.77
2019-05-11T20:46:05.227Z,3.10
2019-05-11T20:48:33.595Z,3.13
2019-05-11T20:51:01.979Z,3.30
2019-05-11T20:53:30.339Z,3.53
2019-05-11T20:55:58.704Z,3.47
2019-05-11T20:58:28.899Z,3.67
2019-05-11T21:00:57.181Z,3.33
2019-05-11T21:03:27.541Z,3.40
2019-05-11T21:05:55.647Z,3.90
2019-05-11T21:08:24.027Z,3.77
2019-05-11T21:10:52.471Z,3.63
2019-05-11T21:13:20.851Z,3.43
2019-05-11T21:15:49.223Z,4.20
2019-05-11T21:18:18.430Z,3.90
2019-05-11T21:20:48.363Z,4.27
2019-05-11T21:23:18.596Z,4.00
2019-05-11T21:25:46.999Z,4.40
2019-05-11T21:28:15.375Z,3.63
2019-05-11T21:30:43.751Z,4.17
2019-05-11T21:33:12.124Z,4.30
2019-05-11T21:35:40.511Z,3.93
2019-05-11T21:38:08.887Z,4.50
2019-05-11T21:40:38.119Z,4.17
2019-05-11T21:43:08.646Z,4.50
2019-05-11T21:45:38.362Z,3.10
2019-05-11T21:48:06.803Z,3.07
2019-05-11T21:50:35.172Z,2.87
2019-05-11T21:53:03.539Z,2.77
2019-05-11T21:55:31.911Z,2.47
2019-05-11T21:58:00.282Z,3.00
2019-05-11T22:00:30.605Z,2.90
2019-05-11T22:02:59.315Z,2.80
2019-05-11T22:05:28.931Z,2.33
2019-05-11T22:07:58.265Z,2.60
2019-05-11T22:10:28.316Z,2.83
2019-05-11T22:12:56.895Z,2.80
2019-05-11T22:15:25.343Z,2.80
2019-05-11T22:17:53.715Z,2.87
2019-05-11T22:20:22.099Z,2.70
2019-05-11T22:22:50.471Z,3.37
2019-05-11T22:25:18.839Z,2.67
2019-05-11T22:27:48.725Z,2.73
2019-05-11T22:30:18.484Z,3.30
2019-05-11T22:32:47.754Z,3.20
2019-05-11T22:35:18.346Z,3.20
2019-05-11T22:37:48.744Z,3.10
2019-05-11T22:40:17.031Z,3.43
2019-05-11T22:42:45.399Z,3.33
2019-05-11T22:45:13.847Z,2.90
2019-05-11T22:47:42.211Z,3.07
2019-05-11T22:50:10.655Z,2.47
2019-05-11T22:52:40.227Z,2.63
2019-05-11T22:55:11.795Z,3.03
2019-05-11T22:57:39.547Z,2.60
2019-05-11T23:00:11.519Z,2.90
2019-05-11T23:02:39.952Z,2.87
2019-05-11T23:05:08.997Z,3.00
2019-05-11T23:07:41.214Z,3.07
2019-05-11T23:10:09.468Z,3.33
2019-05-11T23:12:38.519Z,3.37
2019-05-11T23:15:14.397Z,2.93
2019-05-11T23:17:42.754Z,3.77
2019-05-11T23:20:11.771Z,2.70
2019-05-11T23:22:58.133Z,2.87
2019-05-11T23:25:19.239Z,2.90
2019-05-11T23:27:48.509Z,3.43
2019-05-11T23:30:19.911Z,2.90
2019-05-11T23:32:49.562Z,2.80
2019-05-11T23:35:18.822Z,2.73
2019-05-11T23:37:49.649Z,3.33
2019-05-11T23:40:18.422Z,2.90
2019-05-11T23:42:49.072Z,2.67
2019-05-11T23:45:18.897Z,3.87
2019-05-11T23:47:48.620Z,3.30
2019-05-11T23:50:19.229Z,2.90
2019-05-11T23:52:53.214Z,2.80
2019-05-11T23:55:18.994Z,3.23
2019-05-11T23:57:48.773Z,3.10
